sensor_id;sensor_type;location;lat;lon;timestamp;pressure;altitude;pressure_sealevel;temperature;humidity
26112;BME280;13829;48.990;8.346;2022-09-09T00:00:24;100019.06;;;17.06;100.00
26112;BME280;13829;48.990;8.346;2022-09-09T00:03:07;100025.34;;;17.04;100.00
26112;BME280;13829;48.990;8.346;2022-09-09T00:05:44;100021.84;;;17.02;100.00
26112;BME280;13829;48.990;8.346;2022-09-09T00:08:20;100028.09;;;16.99;100.00
26112;BME280;13829;48.990;8.346;2022-09-09T00:10:56;100021.16;;;16.95;100.00
26112;BME280;13829;48.990;8.346;2022-09-09T00:13:31;100029.00;;;16.98;100.00
26112;BME280;13829;48.990;8.346;2022-09-09T00:16:09;100027.22;;;16.99;100.00
26112;BME280;13829;48.990;8.346;2022-09-09T00:18:54;100022.69;;;17.02;100.00
26112;BME280;13829;48.990;8.346;2022-09-09T00:21:30;100029.81;;;17.02;100.00
26112;BME280;13829;48.990;8.346;2022-09-09T00:24:01;100026.88;;;17.11;100.00
26112;BME280;13829;48.990;8.346;2022-09-09T00:26:39;100025.41;;;17.32;100.00
26112;BME280;13829;48.990;8.346;2022-09-09T00:29:19;100032.47;;;17.33;100.00
26112;BME280;13829;48.990;8.346;2022-09-09T00:31:50;100029.06;;;17.28;100.00
26112;BME280;13829;48.990;8.346;2022-09-09T00:34:24;100023.09;;;17.20;100.00
26112;BME280;13829;48.990;8.346;2022-09-09T00:36:55;100027.59;;;17.18;100.00
26112;BME280;13829;48.990;8.346;2022-09-09T00:39:32;100024.91;;;17.19;100.00
26112;BME280;13829;48.990;8.346;2022-09-09T00:42:14;100016.88;;;17.21;100.00
26112;BME280;13829;48.990;8.346;2022-09-09T00:44:56;100019.63;;;17.18;100.00
26112;BME280;13829;48.990;8.346;2022-09-09T00:47:49;100022.13;;;17.22;100.00
26112;BME280;13829;48.990;8.346;2022-09-09T00:50:45;100035.13;;;17.33;100.00
26112;BME280;13829;48.990;8.346;2022-09-09T00:53:30;100034.22;;;17.34;100.00
26112;BME280;13829;48.990;8.346;2022-09-09T00:56:12;100036.09;;;17.31;100.00
26112;BME280;13829;48.990;8.346;2022-09-09T00:58:42;100037.78;;;17.33;100.00
26112;BME280;13829;48.990;8.346;2022-09-09T01:01:13;100035.06;;;17.35;100.00
26112;BME280;13829;48.990;8.346;2022-09-09T01:03:47;100034.91;;;17.41;100.00
26112;BME280;13829;48.990;8.346;2022-09-09T01:06:29;100035.88;;;17.38;100.00
26112;BME280;13829;48.990;8.346;2022-09-09T01:09:11;100037.59;;;17.39;100.00
26112;BME280;13829;48.990;8.346;2022-09-09T01:11:55;100045.59;;;17.38;100.00
26112;BME280;13829;48.990;8.346;2022-09-09T01:14:42;100050.56;;;17.50;100.00
26112;BME280;13829;48.990;8.346;2022-09-09T01:17:15;100064.75;;;17.51;100.00
26112;BME280;13829;48.990;8.346;2022-09-09T01:20:04;100060.13;;;17.57;100.00
26112;BME280;13829;48.990;8.346;2022-09-09T01:22:44;100071.66;;;17.56;100.00
26112;BME280;13829;48.990;8.346;2022-09-09T01:26:17;100064.84;;;17.77;100.00
26112;BME280;13829;48.990;8.346;2022-09-09T01:28:47;100071.22;;;17.72;100.00
26112;BME280;13829;48.990;8.346;2022-09-09T01:31:23;100059.72;;;17.71;100.00
26112;BME280;13829;48.990;8.346;2022-09-09T01:33:53;100059.09;;;17.61;100.00
26112;BME280;13829;48.990;8.346;2022-09-09T01:36:29;100064.03;;;17.46;100.00
26112;BME280;13829;48.990;8.346;2022-09-09T01:38:59;100063.31;;;17.39;100.00
26112;BME280;13829;48.990;8.346;2022-09-09T01:41:27;100060.34;;;17.50;100.00
26112;BME280;13829;48.990;8.346;2022-09-09T01:43:56;100064.19;;;17.39;100.00
26112;BME280;13829;48.990;8.346;2022-09-09T01:46:23;100062.50;;;17.35;100.00
26112;BME280;13829;48.990;8.346;2022-09-09T01:48:53;100065.22;;;17.34;100.00
26112;BME280;13829;48.990;8.346;2022-09-09T01:51:20;100061.19;;;17.20;100.00
26112;BME280;13829;48.990;8.346;2022-09-09T01:53:48;100061.72;;;17.33;100.00
26112;BME280;13829;48.990;8.346;2022-09-09T01:56:35;100049.19;;;17.05;100.00
26112;BME280;13829;48.990;8.346;2022-09-09T01:59:38;100055.16;;;17.14;100.00
26112;BME280;13829;48.990;8.346;2022-09-09T02:02:13;100034.25;;;17.01;100.00
26112;BME280;13829;48.990;8.346;2022-09-09T02:04:47;100025.84;;;17.17;100.00
26112;BME280;13829;48.990;8.346;2022-09-09T02:07:30;100034.00;;;17.10;100.00
26112;BME280;13829;48.990;8.346;2022-09-09T02:10:12;100025.50;;;16.96;100.00
26112;BME280;13829;48.990;8.346;2022-09-09T02:12:49;100025.63;;;16.93;100.00
26112;BME280;13829;48.990;8.346;2022-09-09T02:15:25;100035.72;;;16.78;100.00
26112;BME280;13829;48.990;8.346;2022-09-09T02:17:55;100037.63;;;16.73;100.00
26112;BME280;13829;48.990;8.346;2022-09-09T02:20:26;100036.09;;;16.63;100.00
26112;BME280;13829;48.990;8.346;2022-09-09T02:22:56;100025.25;;;16.72;100.00
26112;BME280;13829;48.990;8.346;2022-09-09T02:25:28;100024.72;;;16.59;100.00
26112;BME280;13829;48.990;8.346;2022-09-09T02:27:57;100019.63;;;16.50;100.00
26112;BME280;13829;48.990;8.346;2022-09-09T02:30:27;100024.06;;;16.50;100.00
26112;BME280;13829;48.990;8.346;2022-09-09T02:32:58;100019.81;;;16.42;100.00
26112;BME280;13829;48.990;8.346;2022-09-09T02:35:29;100017.09;;;16.45;100.00
26112;BME280;13829;48.990;8.346;2022-09-09T02:38:02;100031.19;;;16.47;100.00
26112;BME280;13829;48.990;8.346;2022-09-09T02:40:30;100025.97;;;16.44;100.00
26112;BME280;13829;48.990;8.346;2022-09-09T02:42:59;100022.41;;;16.45;100.00
26112;BME280;13829;48.990;8.346;2022-09-09T02:45:36;100023.44;;;16.40;100.00
26112;BME280;13829;48.990;8.346;2022-09-09T02:48:14;100010.72;;;16.53;100.00
26112;BME280;13829;48.990;8.346;2022-09-09T02:50:54;100000.94;;;16.55;100.00
26112;BME280;13829;48.990;8.346;2022-09-09T02:53:36;100009.75;;;16.57;100.00
26112;BME280;13829;48.990;8.346;2022-09-09T02:56:13;100018.00;;;16.44;100.00
26112;BME280;13829;48.990;8.346;2022-09-09T02:58:43;100012.00;;;16.36;100.00
26112;BME280;13829;48.990;8.346;2022-09-09T03:01:12;100004.13;;;16.33;100.00
26112;BME280;13829;48.990;8.346;2022-09-09T03:03:39;100005.84;;;16.36;100.00
26112;BME280;13829;48.990;8.346;2022-09-09T03:06:07;100003.06;;;16.40;100.00
26112;BME280;13829;48.990;8.346;2022-09-09T03:08:34;100009.34;;;16.36;100.00
26112;BME280;13829;48.990;8.346;2022-09-09T03:11:01;100008.44;;;16.37;100.00
26112;BME280;13829;48.990;8.346;2022-09-09T03:13:28;100017.22;;;16.41;100.00
26112;BME280;13829;48.990;8.346;2022-09-09T03:15:56;100021.38;;;16.51;100.00
26112;BME280;13829;48.990;8.346;2022-09-09T03:18:23;100013.91;;;16.31;100.00
26112;BME280;13829;48.990;8.346;2022-09-09T03:20:50;100028.16;;;16.27;100.00
26112;BME280;13829;48.990;8.346;2022-09-09T03:23:19;100021.22;;;16.23;100.00
26112;BME280;13829;48.990;8.346;2022-09-09T03:25:47;100023.16;;;16.14;100.00
26112;BME280;13829;48.990;8.346;2022-09-09T03:28:15;100034.72;;;16.12;100.00
26112;BME280;13829;48.990;8.346;2022-09-09T03:30:42;100030.28;;;16.12;100.00
26112;BME280;13829;48.990;8.346;2022-09-09T03:33:10;100026.56;;;16.20;100.00
26112;BME280;13829;48.990;8.346;2022-09-09T03:35:38;100023.00;;;16.21;100.00
26112;BME280;13829;48.990;8.346;2022-09-09T03:38:05;100014.97;;;16.24;100.00
26112;BME280;13829;48.990;8.346;2022-09-09T03:40:32;100023.09;;;16.18;100.00
26112;BME280;13829;48.990;8.346;2022-09-09T03:42:59;100017.72;;;16.21;100.00
26112;BME280;13829;48.990;8.346;2022-09-09T03:45:25;100026.56;;;16.20;100.00
26112;BME280;13829;48.990;8.346;2022-09-09T03:47:52;100026.00;;;16.07;100.00
26112;BME280;13829;48.990;8.346;2022-09-09T03:50:21;100012.84;;;16.02;100.00
26112;BME280;13829;48.990;8.346;2022-09-09T03:52:49;100018.97;;;16.04;100.00
26112;BME280;13829;48.990;8.346;2022-09-09T03:55:16;100024.34;;;16.03;100.00
26112;BME280;13829;48.990;8.346;2022-09-09T03:57:43;100027.03;;;16.01;100.00
26112;BME280;13829;48.990;8.346;2022-09-09T04:00:11;100027.09;;;15.98;100.00
26112;BME280;13829;48.990;8.346;2022-09-09T04:02:38;100025.34;;;15.97;100.00
26112;BME280;13829;48.990;8.346;2022-09-09T04:05:06;100025.28;;;16.00;100.00
26112;BME280;13829;48.990;8.346;2022-09-09T04:07:34;100025.06;;;16.09;100.00
26112;BME280;13829;48.990;8.346;2022-09-09T04:10:01;100028.56;;;16.11;100.00
26112;BME280;13829;48.990;8.346;2022-09-09T04:12:28;100031.13;;;16.14;100.00
26112;BME280;13829;48.990;8.346;2022-09-09T04:14:55;100033.63;;;16.21;100.00
26112;BME280;13829;48.990;8.346;2022-09-09T04:17:22;100034.34;;;16.27;100.00
26112;BME280;13829;48.990;8.346;2022-09-09T04:19:49;100034.31;;;16.29;100.00
26112;BME280;13829;48.990;8.346;2022-09-09T04:22:16;100038.63;;;16.33;100.00
26112;BME280;13829;48.990;8.346;2022-09-09T04:24:44;100047.41;;;16.35;100.00
26112;BME280;13829;48.990;8.346;2022-09-09T04:27:11;100040.16;;;16.43;100.00
26112;BME280;13829;48.990;8.346;2022-09-09T04:29:38;100044.47;;;16.47;100.00
26112;BME280;13829;48.990;8.346;2022-09-09T04:32:05;100041.81;;;16.47;100.00
26112;BME280;13829;48.990;8.346;2022-09-09T04:34:32;100041.81;;;16.47;100.00
26112;BME280;13829;48.990;8.346;2022-09-09T04:36:59;100044.34;;;16.52;100.00
26112;BME280;13829;48.990;8.346;2022-09-09T04:39:26;100050.63;;;16.50;100.00
26112;BME280;13829;48.990;8.346;2022-09-09T04:41:54;100052.28;;;16.54;100.00
26112;BME280;13829;48.990;8.346;2022-09-09T04:44:22;100047.72;;;16.59;100.00
26112;BME280;13829;48.990;8.346;2022-09-09T04:46:48;100059.94;;;16.66;100.00
26112;BME280;13829;48.990;8.346;2022-09-09T04:49:15;100061.47;;;16.75;100.00
26112;BME280;13829;48.990;8.346;2022-09-09T04:51:43;100056.28;;;16.70;100.00
26112;BME280;13829;48.990;8.346;2022-09-09T04:54:11;100058.88;;;16.73;100.00
26112;BME280;13829;48.990;8.346;2022-09-09T04:56:38;100062.44;;;16.72;100.00
26112;BME280;13829;48.990;8.346;2022-09-09T04:59:08;100065.69;;;16.84;100.00
26112;BME280;13829;48.990;8.346;2022-09-09T05:01:35;100061.34;;;16.79;100.00
26112;BME280;13829;48.990;8.346;2022-09-09T05:04:02;100072.66;;;16.88;100.00
26112;BME280;13829;48.990;8.346;2022-09-09T05:06:29;100071.63;;;16.95;100.00
26112;BME280;13829;48.990;8.346;2022-09-09T05:08:57;100070.63;;;16.99;100.00
26112;BME280;13829;48.990;8.346;2022-09-09T05:11:26;100070.84;;;16.90;100.00
26112;BME280;13829;48.990;8.346;2022-09-09T05:13:55;100077.66;;;17.00;100.00
26112;BME280;13829;48.990;8.346;2022-09-09T05:16:24;100076.09;;;16.93;100.00
26112;BME280;13829;48.990;8.346;2022-09-09T05:18:51;100084.00;;;16.94;100.00
26112;BME280;13829;48.990;8.346;2022-09-09T05:21:22;100070.84;;;16.90;100.00
26112;BME280;13829;48.990;8.346;2022-09-09T05:23:50;100074.28;;;16.95;100.00
26112;BME280;13829;48.990;8.346;2022-09-09T05:26:21;100073.47;;;16.91;100.00
26112;BME280;13829;48.990;8.346;2022-09-09T05:28:48;100075.03;;;17.00;100.00
26112;BME280;13829;48.990;8.346;2022-09-09T05:31:18;100082.09;;;17.00;100.00
26112;BME280;13829;48.990;8.346;2022-09-09T05:33:47;100087.38;;;17.01;100.00
26112;BME280;13829;48.990;8.346;2022-09-09T05:36:17;100086.38;;;17.05;100.00
26112;BME280;13829;48.990;8.346;2022-09-09T05:38:45;100089.84;;;17.07;100.00
26112;BME280;13829;48.990;8.346;2022-09-09T05:41:14;100091.44;;;17.15;100.00
26112;BME280;13829;48.990;8.346;2022-09-09T05:43:42;100088.72;;;17.18;100.00
26112;BME280;13829;48.990;8.346;2022-09-09T05:46:12;100094.94;;;17.17;100.00
26112;BME280;13829;48.990;8.346;2022-09-09T05:48:42;100095.16;;;17.07;100.00
26112;BME280;13829;48.990;8.346;2022-09-09T05:51:15;100092.28;;;17.17;100.00
26112;BME280;13829;48.990;8.346;2022-09-09T05:53:44;100090.16;;;17.30;100.00
26112;BME280;13829;48.990;8.346;2022-09-09T05:56:13;100088.59;;;17.54;100.00
26112;BME280;13829;48.990;8.346;2022-09-09T05:58:41;100092.22;;;17.81;100.00
26112;BME280;13829;48.990;8.346;2022-09-09T06:01:12;100093.47;;;17.99;100.00
26112;BME280;13829;48.990;8.346;2022-09-09T06:03:41;100102.31;;;18.01;100.00
26112;BME280;13829;48.990;8.346;2022-09-09T06:06:11;100100.50;;;18.02;100.00
26112;BME280;13829;48.990;8.346;2022-09-09T06:08:42;100097.00;;;18.00;100.00
26112;BME280;13829;48.990;8.346;2022-09-09T06:11:13;100094.53;;;17.92;100.00
26112;BME280;13829;48.990;8.346;2022-09-09T06:13:41;100098.16;;;17.89;100.00
26112;BME280;13829;48.990;8.346;2022-09-09T06:16:13;100101.97;;;17.81;100.00
26112;BME280;13829;48.990;8.346;2022-09-09T06:18:41;100103.72;;;17.82;100.00
26112;BME280;13829;48.990;8.346;2022-09-09T06:21:16;100106.34;;;17.83;100.00
26112;BME280;13829;48.990;8.346;2022-09-09T06:23:45;100093.88;;;17.85;100.00
26112;BME280;13829;48.990;8.346;2022-09-09T06:26:15;100098.13;;;17.91;100.00
26112;BME280;13829;48.990;8.346;2022-09-09T06:28:44;100093.56;;;17.96;100.00
26112;BME280;13829;48.990;8.346;2022-09-09T06:31:15;100090.59;;;18.07;100.00
26112;BME280;13829;48.990;8.346;2022-09-09T06:33:48;100095.59;;;18.18;100.00
26112;BME280;13829;48.990;8.346;2022-09-09T06:36:18;100089.97;;;18.27;100.00
26112;BME280;13829;48.990;8.346;2022-09-09T06:38:47;100091.50;;;18.34;100.00
26112;BME280;13829;48.990;8.346;2022-09-09T06:41:17;100092.84;;;18.48;100.00
26112;BME280;13829;48.990;8.346;2022-09-09T06:43:44;100088.09;;;18.57;100.00
26112;BME280;13829;48.990;8.346;2022-09-09T06:46:14;100090.28;;;18.71;100.00
26112;BME280;13829;48.990;8.346;2022-09-09T06:48:42;100095.41;;;18.78;100.00
26112;BME280;13829;48.990;8.346;2022-09-09T06:51:13;100100.16;;;18.68;100.00
26112;BME280;13829;48.990;8.346;2022-09-09T06:53:42;100090.69;;;18.59;100.00
26112;BME280;13829;48.990;8.346;2022-09-09T06:56:22;100095.63;;;18.45;100.00
26112;BME280;13829;48.990;8.346;2022-09-09T06:58:50;100091.06;;;18.48;100.00
26112;BME280;13829;48.990;8.346;2022-09-09T07:01:20;100096.31;;;18.50;100.00
26112;BME280;13829;48.990;8.346;2022-09-09T07:03:49;100104.53;;;18.70;100.00
26112;BME280;13829;48.990;8.346;2022-09-09T07:06:19;100086.84;;;18.95;100.00
26112;BME280;13829;48.990;8.346;2022-09-09T07:08:50;100095.69;;;19.22;100.00
26112;BME280;13829;48.990;8.346;2022-09-09T07:11:21;100093.38;;;20.52;100.00
26112;BME280;13829;48.990;8.346;2022-09-09T07:13:49;100089.88;;;21.75;97.86
26112;BME280;13829;48.990;8.346;2022-09-09T07:16:19;100101.69;;;21.90;93.38
26112;BME280;13829;48.990;8.346;2022-09-09T07:18:49;100103.25;;;21.55;90.35
26112;BME280;13829;48.990;8.346;2022-09-09T07:21:16;100110.31;;;21.37;92.88
26112;BME280;13829;48.990;8.346;2022-09-09T07:23:44;100111.00;;;21.21;94.86
26112;BME280;13829;48.990;8.346;2022-09-09T07:26:15;100105.41;;;21.07;94.50
26112;BME280;13829;48.990;8.346;2022-09-09T07:28:44;100109.34;;;20.98;95.43
26112;BME280;13829;48.990;8.346;2022-09-09T07:31:15;100108.53;;;21.37;95.68
26112;BME280;13829;48.990;8.346;2022-09-09T07:33:44;100103.09;;;21.39;93.75
26112;BME280;13829;48.990;8.346;2022-09-09T07:36:15;100098.44;;;21.02;94.37
26112;BME280;13829;48.990;8.346;2022-09-09T07:38:45;100105.50;;;20.83;95.47
26112;BME280;13829;48.990;8.346;2022-09-09T07:41:16;100109.59;;;20.69;96.95
26112;BME280;13829;48.990;8.346;2022-09-09T07:43:47;100111.53;;;20.88;97.29
26112;BME280;13829;48.990;8.346;2022-09-09T07:46:17;100106.94;;;20.92;96.73
26112;BME280;13829;48.990;8.346;2022-09-09T07:48:46;100114.06;;;20.91;94.39
26112;BME280;13829;48.990;8.346;2022-09-09T07:51:20;100113.94;;;20.94;95.99
26112;BME280;13829;48.990;8.346;2022-09-09T07:53:51;100108.84;;;21.09;94.55
26112;BME280;13829;48.990;8.346;2022-09-09T07:56:19;100098.69;;;21.96;88.57
26112;BME280;13829;48.990;8.346;2022-09-09T07:58:50;100094.66;;;22.80;86.44
26112;BME280;13829;48.990;8.346;2022-09-09T08:01:21;100094.81;;;22.94;85.29
26112;BME280;13829;48.990;8.346;2022-09-09T08:03:55;100111.84;;;22.76;85.77
26112;BME280;13829;48.990;8.346;2022-09-09T08:06:25;100123.47;;;22.40;85.28
26112;BME280;13829;48.990;8.346;2022-09-09T08:08:54;100127.72;;;22.06;86.66
26112;BME280;13829;48.990;8.346;2022-09-09T08:11:23;100125.34;;;21.80;88.95
26112;BME280;13829;48.990;8.346;2022-09-09T08:13:53;100122.19;;;21.71;91.27
26112;BME280;13829;48.990;8.346;2022-09-09T08:16:23;100129.09;;;21.76;90.37
26112;BME280;13829;48.990;8.346;2022-09-09T08:18:51;100127.56;;;22.28;89.16
26112;BME280;13829;48.990;8.346;2022-09-09T08:21:23;100136.09;;;22.55;88.35
26112;BME280;13829;48.990;8.346;2022-09-09T08:23:52;100132.53;;;22.37;85.67
26112;BME280;13829;48.990;8.346;2022-09-09T08:26:21;100144.16;;;21.98;87.42
26112;BME280;13829;48.990;8.346;2022-09-09T08:28:52;100151.41;;;21.56;91.56
26112;BME280;13829;48.990;8.346;2022-09-09T08:31:23;100152.19;;;21.17;92.85
26112;BME280;13829;48.990;8.346;2022-09-09T08:33:50;100145.75;;;21.00;95.62
26112;BME280;13829;48.990;8.346;2022-09-09T08:36:20;100146.69;;;20.79;96.21
26112;BME280;13829;48.990;8.346;2022-09-09T08:38:49;100155.63;;;20.78;97.10
26112;BME280;13829;48.990;8.346;2022-09-09T08:44:41;100148.84;;;21.32;96.75
26112;BME280;13829;48.990;8.346;2022-09-09T08:47:21;100149.22;;;21.85;93.90
26112;BME280;13829;48.990;8.346;2022-09-09T08:50:07;100152.25;;;21.96;92.33
26112;BME280;13829;48.990;8.346;2022-09-09T08:52:50;100162.06;;;21.77;93.50
26112;BME280;13829;48.990;8.346;2022-09-09T08:55:27;100170.75;;;21.41;95.98
26112;BME280;13829;48.990;8.346;2022-09-09T08:57:58;100166.59;;;20.92;98.63
26112;BME280;13829;48.990;8.346;2022-09-09T09:00:42;100164.81;;;20.71;100.00
26112;BME280;13829;48.990;8.346;2022-09-09T09:03:22;100158.31;;;20.54;100.00
26112;BME280;13829;48.990;8.346;2022-09-09T09:06:04;100159.56;;;20.45;100.00
26112;BME280;13829;48.990;8.346;2022-09-09T09:08:43;100161.69;;;20.37;100.00
26112;BME280;13829;48.990;8.346;2022-09-09T09:11:11;100160.09;;;20.31;100.00
26112;BME280;13829;48.990;8.346;2022-09-09T09:13:46;100156.19;;;20.40;100.00
26112;BME280;13829;48.990;8.346;2022-09-09T09:16:27;100154.97;;;20.49;100.00
26112;BME280;13829;48.990;8.346;2022-09-09T09:18:58;100149.88;;;20.65;100.00
26112;BME280;13829;48.990;8.346;2022-09-09T09:21:40;100148.38;;;21.02;100.00
26112;BME280;13829;48.990;8.346;2022-09-09T09:24:18;100149.69;;;21.33;100.00
26112;BME280;13829;48.990;8.346;2022-09-09T09:26:46;100138.34;;;21.48;98.17
26112;BME280;13829;48.990;8.346;2022-09-09T09:29:15;100147.97;;;21.73;97.18
26112;BME280;13829;48.990;8.346;2022-09-09T09:31:50;100159.44;;;21.56;95.81
26112;BME280;13829;48.990;8.346;2022-09-09T09:34:18;100148.09;;;21.49;91.83
26112;BME280;13829;48.990;8.346;2022-09-09T09:36:53;100157.47;;;21.39;93.14
26112;BME280;13829;48.990;8.346;2022-09-09T09:39:26;100161.69;;;21.45;93.43
26112;BME280;13829;48.990;8.346;2022-09-09T09:41:54;100155.00;;;21.34;91.10
26112;BME280;13829;48.990;8.346;2022-09-09T09:44:26;100157.69;;;21.34;91.84
26112;BME280;13829;48.990;8.346;2022-09-09T09:47:07;100155.13;;;21.31;88.20
26112;BME280;13829;48.990;8.346;2022-09-09T09:49:34;100154.84;;;21.38;89.21
26112;BME280;13829;48.990;8.346;2022-09-09T09:52:02;100150.59;;;21.33;89.43
26112;BME280;13829;48.990;8.346;2022-09-09T09:54:33;100155.28;;;21.28;92.02
26112;BME280;13829;48.990;8.346;2022-09-09T09:57:10;100148.63;;;20.96;86.92
26112;BME280;13829;48.990;8.346;2022-09-09T09:59:38;100145.44;;;20.88;91.80
26112;BME280;13829;48.990;8.346;2022-09-09T10:02:20;100146.22;;;20.67;90.05
26112;BME280;13829;48.990;8.346;2022-09-09T10:05:01;100145.41;;;20.65;90.86
26112;BME280;13829;48.990;8.346;2022-09-09T10:07:29;100150.75;;;20.65;92.71
26112;BME280;13829;48.990;8.346;2022-09-09T10:09:57;100146.69;;;20.79;93.48
26112;BME280;13829;48.990;8.346;2022-09-09T10:12:41;100145.41;;;20.65;92.83
26112;BME280;13829;48.990;8.346;2022-09-09T10:15:37;100147.72;;;20.75;91.84
26112;BME280;13829;48.990;8.346;2022-09-09T10:18:25;100149.66;;;20.69;92.16
26112;BME280;13829;48.990;8.346;2022-09-09T10:21:08;100143.84;;;20.82;89.06
26112;BME280;13829;48.990;8.346;2022-09-09T10:23:59;100139.00;;;20.92;89.10
26112;BME280;13829;48.990;8.346;2022-09-09T10:26:40;100124.50;;;20.97;90.47
26112;BME280;13829;48.990;8.346;2022-09-09T10:29:35;100125.56;;;21.14;89.62
26112;BME280;13829;48.990;8.346;2022-09-09T10:32:33;100129.66;;;21.23;85.38
26112;BME280;13829;48.990;8.346;2022-09-09T10:35:17;100127.72;;;21.26;85.40
26112;BME280;13829;48.990;8.346;2022-09-09T10:38:12;100136.47;;;21.30;84.26
26112;BME280;13829;48.990;8.346;2022-09-09T10:40:49;100129.13;;;21.14;83.85
26112;BME280;13829;48.990;8.346;2022-09-09T10:46:24;100130.59;;;21.42;84.32
26112;BME280;13829;48.990;8.346;2022-09-09T10:49:10;100119.97;;;21.61;81.38
26112;BME280;13829;48.990;8.346;2022-09-09T10:51:54;100129.78;;;21.80;84.62
26112;BME280;13829;48.990;8.346;2022-09-09T10:54:42;100129.09;;;21.76;81.73
26112;BME280;13829;48.990;8.346;2022-09-09T10:57:17;100119.97;;;21.61;79.08
26112;BME280;13829;48.990;8.346;2022-09-09T10:59:52;100131.59;;;21.40;78.44
26112;BME280;13829;48.990;8.346;2022-09-09T11:02:27;100136.78;;;21.43;80.15
26112;BME280;13829;48.990;8.346;2022-09-09T11:05:00;100129.31;;;21.51;79.56
26112;BME280;13829;48.990;8.346;2022-09-09T11:07:39;100123.56;;;21.60;81.94
26112;BME280;13829;48.990;8.346;2022-09-09T11:10:21;100123.81;;;21.54;81.05
26112;BME280;13829;48.990;8.346;2022-09-09T11:12:56;100119.03;;;21.62;81.97
26112;BME280;13829;48.990;8.346;2022-09-09T11:15:35;100112.59;;;21.66;80.93
26112;BME280;13829;48.990;8.346;2022-09-09T11:18:12;100114.91;;;21.74;81.03
26112;BME280;13829;48.990;8.346;2022-09-09T11:20:41;100112.16;;;21.76;78.55
26112;BME280;13829;48.990;8.346;2022-09-09T11:23:17;100109.09;;;21.64;80.10
26112;BME280;13829;48.990;8.346;2022-09-09T11:25:51;100107.44;;;21.62;81.79
26112;BME280;13829;48.990;8.346;2022-09-09T11:28:50;100107.53;;;21.79;76.89
26112;BME280;13829;48.990;8.346;2022-09-09T11:31:44;100114.75;;;21.96;76.72
26112;BME280;13829;48.990;8.346;2022-09-09T11:34:38;100105.94;;;21.94;76.46
26112;BME280;13829;48.990;8.346;2022-09-09T11:37:28;100102.97;;;22.01;81.77
26112;BME280;13829;48.990;8.346;2022-09-09T11:40:19;100101.88;;;22.05;81.17
26112;BME280;13829;48.990;8.346;2022-09-09T11:42:48;100094.94;;;22.01;82.32
26112;BME280;13829;48.990;8.346;2022-09-09T11:45:24;100090.00;;;21.91;81.11
26112;BME280;13829;48.990;8.346;2022-09-09T11:47:56;100095.72;;;21.64;80.10
26112;BME280;13829;48.990;8.346;2022-09-09T11:50:34;100092.13;;;21.45;82.88
26112;BME280;13829;48.990;8.346;2022-09-09T11:53:22;100088.53;;;21.46;85.26
26112;BME280;13829;48.990;8.346;2022-09-09T11:56:11;100080.09;;;21.55;81.55
26112;BME280;13829;48.990;8.346;2022-09-09T11:58:44;100089.72;;;21.59;83.39
26112;BME280;13829;48.990;8.346;2022-09-09T12:01:36;100084.22;;;21.62;82.10
26112;BME280;13829;48.990;8.346;2022-09-09T12:06:56;100084.22;;;21.62;83.10
26112;BME280;13829;48.990;8.346;2022-09-09T12:09:38;100083.06;;;21.68;82.53
26112;BME280;13829;48.990;8.346;2022-09-09T12:12:32;100078.72;;;21.65;81.47
26112;BME280;13829;48.990;8.346;2022-09-09T12:15:26;100080.75;;;21.60;83.67
26112;BME280;13829;48.990;8.346;2022-09-09T12:17:56;100072.28;;;21.70;83.92
26112;BME280;13829;48.990;8.346;2022-09-09T12:20:31;100072.94;;;21.75;78.10
26112;BME280;13829;48.990;8.346;2022-09-09T12:23:21;100072.38;;;21.87;77.43
26112;BME280;13829;48.990;8.346;2022-09-09T12:26:17;100073.16;;;22.08;75.86
26112;BME280;13829;48.990;8.346;2022-09-09T12:29:01;100081.31;;;22.05;74.46
26112;BME280;13829;48.990;8.346;2022-09-09T12:31:39;100069.09;;;22.19;77.50
26112;BME280;13829;48.990;8.346;2022-09-09T12:34:16;100066.19;;;22.23;80.94
26112;BME280;13829;48.990;8.346;2022-09-09T12:36:50;100071.53;;;22.23;79.69
26112;BME280;13829;48.990;8.346;2022-09-09T12:39:29;100074.88;;;22.28;81.92
26112;BME280;13829;48.990;8.346;2022-09-09T12:41:57;100057.53;;;22.36;80.88
26112;BME280;13829;48.990;8.346;2022-09-09T12:44:26;100071.53;;;22.42;79.21
26112;BME280;13829;48.990;8.346;2022-09-09T12:46:58;100056.50;;;22.57;76.15
26112;BME280;13829;48.990;8.346;2022-09-09T12:49:32;100051.59;;;22.83;75.35
26112;BME280;13829;48.990;8.346;2022-09-09T12:52:06;100058.22;;;22.93;74.18
26112;BME280;13829;48.990;8.346;2022-09-09T12:54:36;100071.94;;;22.87;73.61
26112;BME280;13829;48.990;8.346;2022-09-09T12:57:05;100068.19;;;22.74;74.58
26112;BME280;13829;48.990;8.346;2022-09-09T12:59:39;100073.84;;;22.68;78.28
26112;BME280;13829;48.990;8.346;2022-09-09T13:02:21;100074.56;;;22.35;76.34
26112;BME280;13829;48.990;8.346;2022-09-09T13:04:49;100072.94;;;22.13;74.96
26112;BME280;13829;48.990;8.346;2022-09-09T13:07:17;100075.09;;;22.05;77.45
26112;BME280;13829;48.990;8.346;2022-09-09T13:09:47;100079.88;;;22.17;77.82
26112;BME280;13829;48.990;8.346;2022-09-09T13:12:18;100076.97;;;22.03;78.44
26112;BME280;13829;48.990;8.346;2022-09-09T13:14:50;100072.94;;;21.94;80.35
26112;BME280;13829;48.990;8.346;2022-09-09T13:17:22;100073.09;;;21.72;82.48
26112;BME280;13829;48.990;8.346;2022-09-09T13:19:51;100066.00;;;21.71;83.87
26112;BME280;13829;48.990;8.346;2022-09-09T13:22:29;100053.41;;;21.73;83.58
26112;BME280;13829;48.990;8.346;2022-09-09T13:25:01;100054.13;;;21.95;81.44
26112;BME280;13829;48.990;8.346;2022-09-09T13:27:32;100048.97;;;22.10;79.71